Strona główna
METAR-TAF:

METAR-TAF

Lotnisko :

Mont-de-Marsan, Francja

Szerokość geograficzna: 43-55N, Długość geograficzna: 000-30W, wysokość: 62 m

Aktualna obserwacja pogody

Raport powstał 23 minut temu, godzina 08:30 UTC
Wiatr 7 kt od wschodnio-południowy wschód, zmienny między wschód i południowy wschód
Temperatura 23°C
Wilgotność 61%
Ciśnienie 1024 hPa
Widzialność 10 km lub więcej
Brak chmur poniżej 1500 m i brak chmur cumulonimbus

METAR: LFBM 280830Z AUTO 11007KT 080V140 CAVOK 23/15 Q1024 NOSIG

czas: 10:53 (08:53 UTC)

Prognoza

Raport powstał 53 minut temu, godzina 08:00 UTC
Prognoza ważna od 28 godzina 09 UTC do 29 godzina 09 UTC
Wiatr 5 kt od wschód
Widzialność 10 km lub więcej
Brak chmur poniżej 1500 m i brak chmur cumulonimbus

TAF: LFBM 280800Z 2809/2909 10005KT CAVOK

Obserwacja i prognoza pogody dla ponad 4000 lotnisk (raport METAR i TAF).

Dostępne stacje oznaczono żółtymi i czerwonymi punktami na mapie.

Najedź kursorem aby zobaczyć nazwę stacji.

Kliknij aby zobaczyć obserwacje i prognozy pogody.

Aby zmienić mapę: kliknij na zielony przycisk z czarnym krzyżykiem, aby powiększyć; na zielony przycisk z myślnikiem, aby pomniejszyć; na zielone strzałki, aby przejść do map sąsiednich.


METAR-TAF: